Time;durP1;ratioP1;P1;durP2;ratioP2;P2;SDS_P1;SDS_P2;PMS_P1;PMS_P2;Temp;Humidity;BMP_temperature;BMP_pressure;BME280_temperature;BME280_humidity;BME280_pressure;Samples;Min_cycle;Max_cycle;Signal;HPM_P1;HPM_P2
2023/01/29 00:01:43;;;;;;;;;;;;;;;;;;4439171;32;20060;-74
2023/01/29 00:04:08;;;;;;;27.92;17.27;;;;;;;;;;4451912;32;19949;-74
2023/01/29 00:06:34;;;;;;;26.95;16.00;;;;;;;;;;4452078;32;20396;-74
2023/01/29 00:08:59;;;;;;;;;;;;;;;;;;4440072;32;20390;-74
2023/01/29 00:11:24;;;;;;;28.62;17.52;;;;;;;;;;4438900;32;20301;-73
2023/01/29 00:13:49;;;;;;;;;;;;;;;;;;4439726;32;20060;-73
2023/01/29 00:16:14;;;;;;;26.10;18.08;;;;;;;;;;4452357;32;20375;-74
2023/01/29 00:18:40;;;;;;;30.55;19.80;;;;;;;;;;4454197;32;20025;-74
2023/01/29 00:21:05;;;;;;;;;;;;;;;;;;4438153;32;20478;-74
2023/01/29 00:23:30;;;;;;;32.88;18.05;;;;;;;;;;4439225;32;19948;-73
2023/01/29 00:25:58;;;;;;;28.70;19.30;;;;;;;;;;4453396;32;20444;-74
2023/01/29 00:28:23;;;;;;;28.80;18.65;;;;;;;;;;4453478;32;20057;-74
2023/01/29 00:30:48;;;;;;;;;;;;;;;;;;4440026;32;20029;-73
2023/01/29 00:33:13;;;;;;;34.22;20.75;;;;;;;;;;4452436;32;19933;-74
2023/01/29 00:35:38;;;;;;;;;;;;;;;;;;4445638;32;20526;-74
2023/01/29 00:38:04;;;;;;;28.00;17.95;;;;;;;;;;4424581;32;20341;-74
2023/01/29 00:44:56;;;;;;;;;;;;;;;;;;4422914;32;20122;-74
2023/01/29 00:45:58;;;;;;;29.00;17.48;;;;;;;;;;4437096;32;20363;-74
2023/01/29 00:48:23;;;;;;;;;;;;;;;;;;4422818;32;20026;-74
2023/01/29 00:50:48;;;;;;;22.55;15.85;;;;;;;;;;4438125;32;19966;-75
2023/01/29 00:53:13;;;;;;;;;;;;;;;;;;4436308;32;20172;-73
2023/01/29 00:55:38;;;;;;;26.37;17.87;;;;;;;;;;4423153;32;19943;-75
2023/01/29 00:58:03;;;;;;;;;;;;;;;;;;4436778;32;20209;-73
2023/01/29 01:00:29;;;;;;;33.58;18.10;;;;;;;;;;4437095;32;20342;-74
2023/01/29 01:03:06;;;;;;;;;;;;;;;;;;4437678;32;20087;-75
2023/01/29 01:05:31;;;;;;;29.20;18.87;;;;;;;;;;4439245;32;19956;-74
2023/01/29 01:07:56;;;;;;;;;;;;;;;;;;4452014;32;20052;-75
2023/01/29 01:10:27;;;;;;;25.86;17.94;;;;;;;;;;4451739;32;20280;-75
2023/01/29 01:12:59;;;;;;;29.33;18.98;;;;;;;;;;4437696;32;20033;-75
2023/01/29 01:15:27;;;;;;;30.58;19.98;;;;;;;;;;4451726;32;20064;-75
2023/01/29 01:17:53;;;;;;;29.37;19.42;;;;;;;;;;4452915;32;20437;-74
2023/01/29 01:20:18;;;;;;;30.10;20.20;;;;;;;;;;4437435;32;20029;-74
2023/01/29 01:22:44;;;;;;;;;;;;;;;;;;4453752;32;20077;-74
2023/01/29 01:25:09;;;;;;;34.28;20.80;;;;;;;;;;4437938;32;19945;-75
2023/01/29 01:27:36;;;;;;;;;;;;;;;;;;4452363;32;20578;-74
2023/01/29 01:30:01;;;;;;;29.83;20.52;;;;;;;;;;4452761;32;19955;-74
2023/01/29 01:32:26;;;;;;;;;;;;;;;;;;4437306;32;20029;-74
2023/01/29 01:34:52;;;;;;;31.58;19.95;;;;;;;;;;4451506;32;19972;-74
2023/01/29 01:37:17;;;;;;;;;;;;;;;;;;4437767;32;20453;-74
2023/01/29 01:39:47;;;;;;;31.05;20.10;;;;;;;;;;4450926;32;19995;-74
2023/01/29 01:42:12;;;;;;;32.90;20.92;;;;;;;;;;4452715;32;20116;-74
2023/01/29 01:44:38;;;;;;;;;;;;;;;;;;4451838;32;20026;-74
2023/01/29 01:47:03;;;;;;;41.40;21.73;;;;;;;;;;4451410;32;19932;-75
2023/01/29 01:49:28;;;;;;;40.05;24.08;;;;;;;;;;4452341;32;20088;-75
2023/01/29 01:51:53;;;;;;;;;;;;;;;;;;4437049;32;20056;-75
2023/01/29 01:54:22;;;;;;;38.72;21.15;;;;;;;;;;4451572;32;19969;-75
2023/01/29 01:56:53;;;;;;;31.50;20.60;;;;;;;;;;4450727;32;20113;-74
2023/01/29 01:59:18;;;;;;;34.00;20.95;;;;;;;;;;4451385;32;20346;-74
2023/01/29 02:01:46;;;;;;;;;;;;;;;;;;4454319;32;20182;-74
2023/01/29 02:09:50;;;;;;;30.25;21.00;;;;;;;;;;4452617;32;20419;-74
2023/01/29 02:12:15;;;;;;;28.98;20.00;;;;;;;;;;4454503;32;20036;-74
2023/01/29 02:14:40;;;;;;;;;;;;;;;;;;4440040;32;20369;-75
2023/01/29 02:17:07;;;;;;;32.24;20.90;;;;;;;;;;4439811;32;19960;-74
2023/01/29 02:19:38;;;;;;;32.53;20.73;;;;;;;;;;4454029;32;20366;-75
2023/01/29 02:22:27;;;;;;;31.62;20.25;;;;;;;;;;4454306;32;20077;-75
2023/01/29 02:24:58;;;;;;;32.17;21.98;;;;;;;;;;4454729;32;20097;-75
2023/01/29 02:27:32;;;;;;;35.85;22.60;;;;;;;;;;4439323;32;20057;-74
2023/01/29 02:30:10;;;;;;;31.05;22.30;;;;;;;;;;4439590;32;20042;-74
2023/01/29 02:32:53;;;;;;;31.58;21.40;;;;;;;;;;4455496;32;20397;-74
2023/01/29 02:35:28;;;;;;;32.97;20.65;;;;;;;;;;4453983;32;20014;-74
2023/01/29 02:38:29;;;;;;;32.85;21.67;;;;;;;;;;4453843;32;20074;-73
2023/01/29 02:40:56;;;;;;;38.80;20.88;;;;;;;;;;4377028;32;20091;-75
2023/01/29 02:43:31;;;;;;;34.15;22.90;;;;;;;;;;4438099;32;20044;-74
2023/01/29 02:46:07;;;;;;;29.98;20.67;;;;;;;;;;4453398;32;20338;-74
2023/01/29 02:48:38;;;;;;;30.33;21.67;;;;;;;;;;4454554;32;20029;-73
2023/01/29 02:51:07;;;;;;;34.85;22.20;;;;;;;;;;4455213;32;20090;-74
2023/01/29 02:53:36;;;;;;;38.05;23.10;;;;;;;;;;4438757;32;20033;-75
2023/01/29 02:56:01;;;;;;;40.03;21.23;;;;;;;;;;4439020;32;20033;-75
2023/01/29 02:58:27;;;;;;;;;;;;;;;;;;4439693;32;20025;-73
2023/01/29 03:00:54;;;;;;;36.17;21.75;;;;;;;;;;4452997;32;20258;-74
2023/01/29 03:03:22;;;;;;;34.80;23.98;;;;;;;;;;4454060;32;20045;-75
2023/01/29 03:05:53;;;;;;;37.40;22.62;;;;;;;;;;4454572;32;20033;-75
2023/01/29 03:08:35;;;;;;;35.33;24.37;;;;;;;;;;4453145;32;20077;-74
2023/01/29 03:11:02;;;;;;;32.88;21.25;;;;;;;;;;4455127;32;20065;-74
2023/01/29 03:13:31;;;;;;;35.50;23.35;;;;;;;;;;4452987;32;20025;-74
2023/01/29 03:16:00;;;;;;;37.80;23.95;;;;;;;;;;4454723;32;20363;-74
2023/01/29 03:18:29;;;;;;;40.38;25.02;;;;;;;;;;4453632;32;20029;-74
2023/01/29 03:20:58;;;;;;;33.70;22.52;;;;;;;;;;4438497;32;20131;-75
2023/01/29 03:23:37;;;;;;;36.13;23.87;;;;;;;;;;4452619;32;20056;-75
2023/01/29 03:34:22;;;;;;;41.50;26.12;;;;;;;;;;4454920;32;20083;-74
2023/01/29 03:36:54;;;;;;;42.35;26.12;;;;;;;;;;4453766;32;20013;-75
2023/01/29 03:39:20;;;;;;;40.25;25.23;;;;;;;;;;4454670;32;20017;-74
2023/01/29 03:41:46;;;;;;;;;;;;;;;;;;4453435;32;20433;-74
2023/01/29 03:44:14;;;;;;;39.13;25.52;;;;;;;;;;4453110;32;20257;-74
2023/01/29 03:46:47;;;;;;;42.78;26.48;;;;;;;;;;4452739;32;20059;-75
2023/01/29 03:49:16;;;;;;;38.65;26.83;;;;;;;;;;4438344;32;20034;-74
2023/01/29 03:51:41;;;;;;;42.38;27.23;;;;;;;;;;4454753;32;20033;-74
2023/01/29 03:54:07;;;;;;;;;;;;;;;;;;4452740;32;20075;-75
2023/01/29 03:56:43;;;;;;;40.63;25.15;;;;;;;;;;4452322;32;19943;-75
2023/01/29 03:59:17;;;;;;;39.97;25.83;;;;;;;;;;4438987;32;20013;-75
2023/01/29 04:01:48;;;;;;;42.03;26.67;;;;;;;;;;4452699;32;20441;-75
2023/01/29 04:04:16;;;;;;;39.28;25.25;;;;;;;;;;4454058;32;20075;-75
2023/01/29 04:06:43;;;;;;;43.97;27.52;;;;;;;;;;4452489;32;20056;-74
2023/01/29 04:09:21;;;;;;;35.65;24.65;;;;;;;;;;4453938;32;20423;-75
2023/01/29 04:12:08;;;;;;;38.65;23.27;;;;;;;;;;4452456;32;20030;-75
2023/01/29 04:14:33;;;;;;;37.30;24.67;;;;;;;;;;4454111;32;20030;-74
2023/01/29 04:16:58;;;;;;;;;;;;;;;;;;4439841;32;20395;-75
2023/01/29 04:19:23;;;;;;;38.83;24.30;;;;;;;;;;4453758;32;19933;-75
2023/01/29 04:21:48;;;;;;;;;;;;;;;;;;4440030;32;20562;-75
2023/01/29 04:24:14;;;;;;;42.45;25.08;;;;;;;;;;4452877;32;19988;-75
2023/01/29 04:27:02;;;;;;;40.08;25.27;;;;;;;;;;4452777;32;20041;-75
2023/01/29 04:29:39;;;;;;;45.00;26.48;;;;;;;;;;4453215;32;20316;-74
2023/01/29 04:32:04;;;;;;;;;;;;;;;;;;4454193;32;20426;-75
2023/01/29 04:34:44;;;;;;;35.78;25.08;;;;;;;;;;4452619;32;19984;-74
2023/01/29 04:37:32;;;;;;;42.67;26.62;;;;;;;;;;4454243;32;20426;-75
2023/01/29 04:40:13;;;;;;;38.60;25.52;;;;;;;;;;4452846;32;20307;-74
2023/01/29 04:42:42;;;;;;;38.00;26.37;;;;;;;;;;4452273;32;20052;-76
2023/01/29 04:45:15;;;;;;;41.13;25.70;;;;;;;;;;4452340;32;20338;-74
2023/01/29 04:47:40;;;;;;;38.13;26.20;;;;;;;;;;4453064;32;20024;-74
2023/01/29 04:50:05;;;;;;;;;;;;;;;;;;4453500;32;20093;-74
2023/01/29 04:52:49;;;;;;;38.25;25.05;;;;;;;;;;4439192;32;20025;-74
2023/01/29 04:55:14;;;;;;;39.28;26.30;;;;;;;;;;4452217;32;20175;-74
2023/01/29 04:57:41;;;;;;;;;;;;;;;;;;4437868;32;20029;-75
2023/01/29 05:00:10;;;;;;;40.55;25.92;;;;;;;;;;4451906;32;19936;-75
2023/01/29 05:02:38;;;;;;;41.37;25.27;;;;;;;;;;4452096;32;20049;-74
2023/01/29 05:05:05;;;;;;;41.65;27.20;;;;;;;;;;4437481;32;20045;-74
2023/01/29 05:07:31;;;;;;;42.30;29.33;;;;;;;;;;4451593;32;20025;-74
2023/01/29 05:09:56;;;;;;;42.88;28.30;;;;;;;;;;4451514;32;20029;-75
2023/01/29 05:12:21;;;;;;;;;;;;;;;;;;4437960;32;20021;-76
2023/01/29 05:14:48;;;;;;;43.70;26.77;;;;;;;;;;4451081;32;19971;-75
2023/01/29 05:17:14;;;;;;;41.20;26.62;;;;;;;;;;4452000;32;20029;-75
2023/01/29 05:19:40;;;;;;;38.60;26.10;;;;;;;;;;4438574;32;20371;-75
2023/01/29 05:22:05;;;;;;;;;;;;;;;;;;4452148;32;20029;-73
2023/01/29 05:24:30;;;;;;;37.58;25.10;;;;;;;;;;4437671;32;19937;-75
2023/01/29 05:29:42;;;;;;;40.72;25.33;;;;;;;;;;4452967;32;19939;-75
2023/01/29 05:32:07;;;;;;;40.97;25.45;;;;;;;;;;4438574;32;20068;-75
2023/01/29 05:34:33;;;;;;;;;;;;;;;;;;4452521;32;20022;-74
2023/01/29 05:36:58;;;;;;;37.10;22.92;;;;;;;;;;4437663;32;20297;-74
2023/01/29 05:39:23;;;;;;;;;;;;;;;;;;4451714;32;20403;-75
2023/01/29 05:41:48;;;;;;;36.48;22.86;;;;;;;;;;4451157;32;19947;-75
2023/01/29 05:44:14;;;;;;;;;;;;;;;;;;4452187;32;20053;-75
2023/01/29 05:46:39;;;;;;;36.24;23.40;;;;;;;;;;4440139;32;19973;-75
2023/01/29 05:49:04;;;;;;;;;;;;;;;;;;4456568;32;20057;-75
2023/01/29 05:51:29;;;;;;;36.65;23.10;;;;;;;;;;4440735;32;19991;-75
2023/01/29 05:53:54;;;;;;;;;;;;;;;;;;4454589;32;20045;-75
2023/01/29 05:56:20;;;;;;;37.55;23.17;;;;;;;;;;4455866;32;19932;-75
2023/01/29 05:58:45;;;;;;;41.80;26.23;;;;;;;;;;4455415;32;20029;-74
2023/01/29 06:01:10;;;;;;;;;;;;;;;;;;4441983;32;20051;-75
2023/01/29 06:03:35;;;;;;;35.50;23.20;;;;;;;;;;4456071;32;19932;-75
2023/01/29 06:06:00;;;;;;;;;;;;;;;;;;4455274;32;20025;-75
2023/01/29 06:08:26;;;;;;;36.97;26.10;;;;;;;;;;4456246;32;19936;-75
2023/01/29 06:10:51;;;;;;;;;;;;;;;;;;4454513;32;20136;-75
2023/01/29 06:13:16;;;;;;;40.47;25.60;;;;;;;;;;4455778;32;19986;-75
2023/01/29 06:15:41;;;;;;;;;;;;;;;;;;4455209;32;20017;-75
2023/01/29 06:18:07;;;;;;;43.03;27.02;;;;;;;;;;4441765;32;19948;-75
2023/01/29 06:20:32;;;;;;;;;;;;;;;;;;4456110;32;20116;-75
2023/01/29 06:22:57;;;;;;;39.75;26.42;;;;;;;;;;4440202;32;19939;-75
2023/01/29 06:25:22;;;;;;;;;;;;;;;;;;4454326;32;20120;-75
2023/01/29 06:27:50;;;;;;;39.65;25.23;;;;;;;;;;4447066;32;19936;-76
2023/01/29 06:30:17;;;;;;;44.20;27.08;;;;;;;;;;4448048;32;20142;-75
2023/01/29 06:32:42;;;;;;;41.08;26.23;;;;;;;;;;4440010;32;20089;-76
2023/01/29 06:35:08;;;;;;;;;;;;;;;;;;4449470;32;20049;-76
2023/01/29 06:37:34;;;;;;;35.47;23.90;;;;;;;;;;4438823;32;19947;-75
2023/01/29 06:39:59;;;;;;;;;;;;;;;;;;4438672;32;20026;-73
2023/01/29 06:42:26;;;;;;;38.20;25.25;;;;;;;;;;4424019;32;19951;-73
2023/01/29 06:44:52;;;;;;;38.78;25.98;;;;;;;;;;4439756;32;20185;-74
2023/01/29 06:47:17;;;;;;;;;;;;;;;;;;4454937;32;20025;-74
2023/01/29 06:49:43;;;;;;;38.22;24.73;;;;;;;;;;4439257;32;19951;-74
2023/01/29 06:52:08;;;;;;;36.75;23.90;;;;;;;;;;4454253;32;20517;-75
2023/01/29 06:54:33;;;;;;;;;;;;;;;;;;4453958;32;20077;-75
2023/01/29 06:56:59;;;;;;;33.55;23.48;;;;;;;;;;4439723;32;19937;-75
2023/01/29 06:59:24;;;;;;;;;;;;;;;;;;4454891;32;20116;-76
2023/01/29 07:01:49;;;;;;;34.33;23.60;;;;;;;;;;4454025;32;19980;-75
2023/01/29 07:04:14;;;;;;;;;;;;;;;;;;4453651;32;20056;-75
2023/01/29 07:06:39;;;;;;;34.66;24.18;;;;;;;;;;4440559;32;19940;-75
2023/01/29 07:09:04;;;;;;;;;;;;;;;;;;4454582;32;20021;-75
2023/01/29 07:11:30;;;;;;;37.22;24.00;;;;;;;;;;4453421;32;20014;-75
2023/01/29 07:13:55;;;;;;;;;;;;;;;;;;4454975;32;20120;-76
2023/01/29 07:16:22;;;;;;;36.65;24.33;;;;;;;;;;4452673;32;19969;-76
2023/01/29 07:18:47;;;;;;;34.42;24.80;;;;;;;;;;4453994;32;20512;-75
2023/01/29 07:21:12;;;;;;;;;;;;;;;;;;4453285;32;20025;-75
2023/01/29 07:23:37;;;;;;;33.63;23.52;;;;;;;;;;4454187;32;19951;-76
2023/01/29 07:26:02;;;;;;;;;;;;;;;;;;4441306;32;20343;-76
2023/01/29 07:28:28;;;;;;;34.72;23.15;;;;;;;;;;4432034;32;19940;-76
2023/01/29 07:30:53;;;;;;;;;;;;;;;;;;4432092;32;20514;-78
2023/01/29 07:33:18;;;;;;;39.15;25.17;;;;;;;;;;4445392;32;19948;-76
2023/01/29 07:35:43;;;;;;;;;;;;;;;;;;4438253;32;20122;-75
2023/01/29 07:38:09;;;;;;;37.08;24.90;;;;;;;;;;4432247;32;20363;-77
2023/01/29 07:40:34;;;;;;;;;;;;;;;;;;4449732;32;20021;-77
2023/01/29 07:43:00;;;;;;;37.95;25.85;;;;;;;;;;4429997;32;20308;-78
2023/01/29 07:45:25;;;;;;;;;;;;;;;;;;4438835;32;20214;-76
2023/01/29 07:47:51;;;;;;;33.88;22.98;;;;;;;;;;4450890;32;19988;-75
2023/01/29 07:50:16;;;;;;;35.92;24.92;;;;;;;;;;4454305;32;20460;-75
2023/01/29 07:52:41;;;;;;;;;;;;;;;;;;4452104;32;20464;-76
2023/01/29 07:55:07;;;;;;;41.42;26.00;;;;;;;;;;4453848;32;20322;-76
2023/01/29 07:57:32;;;;;;;;;;;;;;;;;;4453094;32;20140;-75
2023/01/29 07:59:57;;;;;;;39.47;25.27;;;;;;;;;;4452081;32;19941;-76
2023/01/29 08:02:22;;;;;;;36.67;25.02;;;;;;;;;;4452777;32;20101;-76
2023/01/29 08:04:47;;;;;;;;;;;;;;;;;;4452738;32;20047;-76
2023/01/29 08:07:12;;;;;;;39.97;24.98;;;;;;;;;;4441989;32;19948;-76
2023/01/29 08:09:38;;;;;;;41.03;26.37;;;;;;;;;;4422312;32;20025;-76
2023/01/29 08:12:03;;;;;;;;;;;;;;;;;;4437160;32;20070;-76
2023/01/29 08:14:28;;;;;;;37.15;25.67;;;;;;;;;;4431159;32;19936;-75
2023/01/29 08:16:53;;;;;;;36.38;25.55;;;;;;;;;;4451953;32;20048;-77
2023/01/29 08:19:18;;;;;;;;;;;;;;;;;;4453259;32;20021;-76
2023/01/29 08:21:43;;;;;;;36.74;25.32;;;;;;;;;;4451749;32;19933;-77
2023/01/29 08:24:09;;;;;;;;;;;;;;;;;;4452525;32;20093;-77
2023/01/29 08:26:34;;;;;;;36.05;24.77;;;;;;;;;;4437633;32;19940;-78
2023/01/29 08:28:59;;;;;;;;;;;;;;;;;;4442962;32;20143;-77
2023/01/29 08:31:24;;;;;;;32.80;23.55;;;;;;;;;;4437103;32;20027;-77
2023/01/29 08:33:49;;;;;;;;;;;;;;;;;;4422970;32;20455;-77
2023/01/29 08:36:15;;;;;;;36.84;24.02;;;;;;;;;;4436599;32;20428;-77
2023/01/29 08:38:40;;;;;;;;;;;;;;;;;;4437213;32;20021;-78
2023/01/29 08:41:06;;;;;;;37.67;24.63;;;;;;;;;;4436975;32;20334;-80
2023/01/29 08:43:31;;;;;;;;;;;;;;;;;;4422669;32;20143;-78
2023/01/29 08:45:56;;;;;;;36.50;24.00;;;;;;;;;;4448289;32;19940;-77
2023/01/29 08:48:21;;;;;;;38.80;23.62;;;;;;;;;;4438185;32;20051;-78
2023/01/29 08:50:46;;;;;;;;;;;;;;;;;;4439063;32;20022;-78
2023/01/29 08:53:12;;;;;;;36.38;22.27;;;;;;;;;;4443952;32;20314;-78
2023/01/29 08:55:37;;;;;;;;;;;;;;;;;;4422505;32;20033;-80
2023/01/29 08:58:04;;;;;;;33.65;21.73;;;;;;;;;;4437094;32;19933;-79
2023/01/29 09:00:29;;;;;;;36.70;24.17;;;;;;;;;;4423175;32;20074;-79
2023/01/29 09:02:54;;;;;;;;;;;;;;;;;;4438288;32;20435;-79
2023/01/29 09:05:19;;;;;;;34.17;20.42;;;;;;;;;;4434543;32;19939;-78
2023/01/29 09:07:46;;;;;;;;;;;;;;;;;;4437699;32;20160;-78
2023/01/29 09:10:11;;;;;;;36.55;24.25;;;;;;;;;;4453873;32;19940;-78
2023/01/29 09:12:36;;;;;;;;;;;;;;;;;;4448983;32;20058;-78
2023/01/29 09:15:01;;;;;;;41.45;24.95;;;;;;;;;;4437439;32;19944;-79
2023/01/29 09:17:28;;;;;;;;;;;;;;;;;;4438383;32;20408;-78
2023/01/29 09:19:53;;;;;;;39.58;23.92;;;;;;;;;;4424052;32;19933;-77
2023/01/29 09:22:18;;;;;;;;;;;;;;;;;;4424753;32;20037;-78
2023/01/29 09:24:43;;;;;;;39.86;24.08;;;;;;;;;;4438846;32;19933;-79
2023/01/29 09:27:09;;;;;;;;;;;;;;;;;;4422082;32;20060;-78
2023/01/29 09:29:34;;;;;;;35.90;23.15;;;;;;;;;;4436078;32;20439;-78
2023/01/29 09:32:00;;;;;;;;;;;;;;;;;;4421956;32;20030;-77
2023/01/29 09:34:25;;;;;;;38.88;23.65;;;;;;;;;;4428524;32;19991;-76
2023/01/29 09:36:50;;;;;;;;;;;;;;;;;;4451588;32;20163;-77
2023/01/29 09:39:15;;;;;;;39.53;24.45;;;;;;;;;;4450015;32;19968;-77
2023/01/29 09:41:40;;;;;;;;;;;;;;;;;;4438560;32;20121;-77
2023/01/29 09:44:35;;;;;;;40.30;24.70;;;;;;;;;;4430669;32;20020;-77
2023/01/29 09:47:03;;;;;;;38.20;23.48;;;;;;;;;;4368237;32;20152;-77
2023/01/29 09:49:30;;;;;;;36.13;24.42;;;;;;;;;;4437005;32;20033;-78
2023/01/29 09:52:06;;;;;;;40.85;25.08;;;;;;;;;;4421996;32;20087;-78
2023/01/29 09:54:34;;;;;;;38.17;24.42;;;;;;;;;;4435529;32;20060;-77
2023/01/29 09:56:59;;;;;;;36.15;25.25;;;;;;;;;;4435971;32;20033;-78
2023/01/29 09:59:24;;;;;;;;;;;;;;;;;;4422683;32;20136;-78
2023/01/29 10:02:01;;;;;;;36.55;25.25;;;;;;;;;;4437301;32;19971;-78
2023/01/29 10:04:26;;;;;;;;;;;;;;;;;;4424679;32;20082;-78
2023/01/29 10:07:11;;;;;;;40.17;25.67;;;;;;;;;;4437553;32;19999;-78
2023/01/29 10:09:45;;;;;;;39.90;25.83;;;;;;;;;;4425870;32;20128;-78
2023/01/29 10:12:29;;;;;;;40.22;25.30;;;;;;;;;;4436218;32;20095;-79
2023/01/29 10:15:19;;;;;;;36.90;25.35;;;;;;;;;;4436213;32;20030;-77
2023/01/29 10:18:03;;;;;;;38.67;26.33;;;;;;;;;;4436463;32;20030;-78
2023/01/29 10:20:48;;;;;;;40.17;26.77;;;;;;;;;;4421320;32;20353;-77
2023/01/29 10:23:22;;;;;;;44.10;27.10;;;;;;;;;;4422758;32;20347;-79
2023/01/29 10:25:47;;;;;;;44.92;26.60;;;;;;;;;;4421682;32;20029;-77
2023/01/29 10:28:12;;;;;;;;;;;;;;;;;;4437507;32;20134;-77
2023/01/29 10:30:40;;;;;;;50.95;28.50;;;;;;;;;;4437086;32;19971;-78
2023/01/29 10:33:11;;;;;;;39.15;25.98;;;;;;;;;;4438905;32;20194;-78
2023/01/29 10:35:38;;;;;;;40.95;25.95;;;;;;;;;;4453848;32;20065;-78
2023/01/29 10:38:12;;;;;;;39.92;26.85;;;;;;;;;;4455223;32;20045;-77
2023/01/29 10:40:40;;;;;;;38.53;26.30;;;;;;;;;;4424473;32;20034;-78
2023/01/29 10:43:20;;;;;;;39.60;27.55;;;;;;;;;;4437882;32;20091;-78
2023/01/29 10:45:52;;;;;;;38.50;26.30;;;;;;;;;;4438187;32;20056;-78
2023/01/29 10:48:17;;;;;;;41.22;27.23;;;;;;;;;;4423743;32;20072;-78
2023/01/29 10:50:42;;;;;;;;;;;;;;;;;;4438084;32;20337;-78
2023/01/29 10:53:26;;;;;;;40.80;27.75;;;;;;;;;;4438927;32;19992;-79
2023/01/29 10:55:58;;;;;;;42.85;28.60;;;;;;;;;;4454261;32;20191;-78
2023/01/29 10:58:23;;;;;;;42.10;28.70;;;;;;;;;;4439143;32;20469;-78
2023/01/29 11:00:48;;;;;;;;;;;;;;;;;;4439635;32;20029;-76
2023/01/29 11:03:22;;;;;;;42.33;28.70;;;;;;;;;;4453195;32;19936;-77
2023/01/29 11:05:55;;;;;;;45.78;27.17;;;;;;;;;;4438809;32;20218;-76
2023/01/29 11:08:22;;;;;;;45.95;29.15;;;;;;;;;;4425897;32;20033;-77
2023/01/29 11:11:07;;;;;;;40.20;26.67;;;;;;;;;;4443227;32;20038;-76
2023/01/29 11:13:41;;;;;;;44.95;28.98;;;;;;;;;;4443481;32;20026;-75
2023/01/29 11:16:07;;;;;;;41.17;27.75;;;;;;;;;;4437649;32;20063;-77
2023/01/29 11:18:32;;;;;;;;;;;;;;;;;;4423888;32;20030;-77
2023/01/29 11:21:02;;;;;;;41.28;27.37;;;;;;;;;;4450552;32;20274;-76
2023/01/29 11:23:29;;;;;;;38.83;27.60;;;;;;;;;;4451445;32;20141;-77
2023/01/29 11:25:55;;;;;;;41.60;27.77;;;;;;;;;;4438597;32;20037;-76
2023/01/29 11:28:20;;;;;;;;;;;;;;;;;;4437789;32;20408;-77
2023/01/29 11:30:45;;;;;;;56.67;28.05;;;;;;;;;;4423359;32;20342;-76
2023/01/29 11:33:10;;;;;;;;;;;;;;;;;;4433001;32;20606;-77
2023/01/29 11:35:36;;;;;;;39.83;27.20;;;;;;;;;;4438224;32;19932;-77
2023/01/29 11:38:01;;;;;;;;;;;;;;;;;;4438615;32;20157;-77
2023/01/29 11:40:32;;;;;;;48.35;27.92;;;;;;;;;;4438039;32;19957;-77
2023/01/29 11:43:10;;;;;;;40.85;26.87;;;;;;;;;;4435855;32;20116;-77
2023/01/29 11:45:37;;;;;;;39.33;29.10;;;;;;;;;;4438553;32;20080;-78
2023/01/29 11:48:02;;;;;;;42.53;28.38;;;;;;;;;;4452954;32;20109;-80
2023/01/29 11:50:28;;;;;;;;;;;;;;;;;;4453414;32;20029;-80
2023/01/29 11:52:53;;;;;;;44.13;27.85;;;;;;;;;;4440434;32;19936;-80
2023/01/29 11:55:18;;;;;;;;;;;;;;;;;;4430053;32;20133;-81
2023/01/29 11:57:55;;;;;;;42.20;29.33;;;;;;;;;;4437600;32;19949;-80
2023/01/29 12:00:22;;;;;;;43.80;28.05;;;;;;;;;;4438241;32;20041;-80
2023/01/29 12:02:51;;;;;;;39.58;27.92;;;;;;;;;;4438951;32;20026;-81
2023/01/29 12:05:17;;;;;;;41.60;28.98;;;;;;;;;;4442912;32;20025;-81
2023/01/29 12:07:44;;;;;;;39.95;27.75;;;;;;;;;;4454372;32;20104;-81
2023/01/29 12:10:36;;;;;;;41.47;27.10;;;;;;;;;;4439199;32;20025;-81
2023/01/29 12:13:05;;;;;;;42.90;28.90;;;;;;;;;;4449144;32;20025;-82
2023/01/29 12:15:30;;;;;;;40.33;28.33;;;;;;;;;;4439416;32;20437;-81
2023/01/29 12:17:56;;;;;;;;;;;;;;;;;;4453608;32;20117;-82
2023/01/29 12:20:24;;;;;;;40.78;27.48;;;;;;;;;;4435953;32;19945;-82
2023/01/29 12:22:52;;;;;;;43.28;28.20;;;;;;;;;;4437321;32;20093;-79
2023/01/29 12:25:17;;;;;;;39.10;27.77;;;;;;;;;;4441168;32;20104;-80
2023/01/29 12:27:42;;;;;;;;;;;;;;;;;;4441478;32;20045;-80
2023/01/29 12:30:43;;;;;;;40.33;26.83;;;;;;;;;;4436749;32;19944;-81
2023/01/29 12:33:11;;;;;;;40.75;27.37;;;;;;;;;;4359796;32;20178;-80
2023/01/29 12:35:48;;;;;;;41.72;25.60;;;;;;;;;;4421809;32;20065;-81
2023/01/29 12:38:18;;;;;;;38.10;25.85;;;;;;;;;;4436710;32;20071;-81
2023/01/29 12:40:46;;;;;;;38.83;27.13;;;;;;;;;;4439713;32;20067;-81
2023/01/29 12:43:21;;;;;;;40.85;26.77;;;;;;;;;;4441651;32;20040;-83
2023/01/29 12:45:50;;;;;;;42.08;26.62;;;;;;;;;;4439370;32;20327;-81
2023/01/29 12:48:27;;;;;;;35.60;26.02;;;;;;;;;;4423411;32;20026;-80
2023/01/29 12:50:54;;;;;;;38.53;25.65;;;;;;;;;;4423520;32;20034;-80
2023/01/29 12:53:29;;;;;;;38.38;26.80;;;;;;;;;;4426294;32;20051;-81
2023/01/29 12:55:58;;;;;;;37.67;25.52;;;;;;;;;;4436523;32;20029;-80
2023/01/29 12:58:27;;;;;;;39.97;26.95;;;;;;;;;;4434661;32;20018;-81
2023/01/29 13:00:54;;;;;;;40.35;26.55;;;;;;;;;;4436735;32;20030;-81
2023/01/29 13:03:26;;;;;;;38.75;25.52;;;;;;;;;;4436477;32;20034;-81
2023/01/29 13:05:53;;;;;;;38.72;25.80;;;;;;;;;;4436447;32;20321;-81
2023/01/29 13:08:24;;;;;;;41.22;24.87;;;;;;;;;;4438526;32;20066;-81
2023/01/29 13:10:51;;;;;;;38.75;24.87;;;;;;;;;;4437511;32;20026;-81
2023/01/29 13:13:35;;;;;;;36.97;25.55;;;;;;;;;;4437171;32;20074;-80
2023/01/29 13:16:03;;;;;;;37.72;24.63;;;;;;;;;;4438015;32;20026;-81
2023/01/29 13:18:34;;;;;;;37.67;25.37;;;;;;;;;;4437461;32;20034;-81
2023/01/29 13:21:00;;;;;;;33.10;24.15;;;;;;;;;;4435640;32;20056;-80
2023/01/29 13:23:25;;;;;;;;;;;;;;;;;;4438140;32;20323;-80
2023/01/29 13:25:51;;;;;;;35.08;23.98;;;;;;;;;;4437103;32;19937;-80
2023/01/29 13:28:16;;;;;;;;;;;;;;;;;;4437477;32;20121;-80
2023/01/29 13:30:42;;;;;;;34.88;23.48;;;;;;;;;;4436974;32;19975;-80
2023/01/29 13:33:07;;;;;;;;;;;;;;;;;;4438794;32;20034;-80
2023/01/29 13:35:36;;;;;;;39.30;23.05;;;;;;;;;;4436990;32;19970;-80
2023/01/29 13:38:01;;;;;;;32.90;22.30;;;;;;;;;;4436298;32;20199;-81
2023/01/29 13:40:26;;;;;;;;;;;;;;;;;;4436360;32;20053;-80
2023/01/29 13:42:53;;;;;;;32.50;22.08;;;;;;;;;;4434606;32;19984;-80
2023/01/29 13:45:22;;;;;;;38.03;24.40;;;;;;;;;;4435344;32;20060;-80
2023/01/29 13:47:47;;;;;;;34.10;23.42;;;;;;;;;;4434711;32;20415;-80
2023/01/29 13:50:12;;;;;;;;;;;;;;;;;;4434829;32;20025;-80
2023/01/29 13:52:39;;;;;;;32.70;22.87;;;;;;;;;;4435011;32;19937;-81
2023/01/29 13:55:05;;;;;;;33.50;23.38;;;;;;;;;;4436228;32;20268;-82
2023/01/29 13:57:30;;;;;;;;;;;;;;;;;;4427068;32;20041;-81
2023/01/29 13:59:56;;;;;;;35.20;23.98;;;;;;;;;;4421890;32;20402;-80
2023/01/29 14:02:23;;;;;;;34.92;22.65;;;;;;;;;;4421860;32;20404;-81
2023/01/29 14:04:48;;;;;;;35.30;23.50;;;;;;;;;;4424593;32;20082;-81
2023/01/29 14:07:14;;;;;;;;;;;;;;;;;;4455450;32;20025;-80
2023/01/29 14:09:39;;;;;;;36.33;22.85;;;;;;;;;;4454592;32;19933;-80
2023/01/29 14:12:04;;;;;;;;;;;;;;;;;;4441106;32;20525;-79
2023/01/29 14:14:47;;;;;;;30.48;20.95;;;;;;;;;;4454845;32;19940;-79
2023/01/29 14:17:13;;;;;;;33.13;21.37;;;;;;;;;;4440919;32;20030;-80
2023/01/29 14:19:45;;;;;;;30.80;21.67;;;;;;;;;;4454425;32;20033;-81
2023/01/29 14:22:18;;;;;;;30.73;21.67;;;;;;;;;;4455491;32;20033;-81
2023/01/29 14:24:43;;;;;;;35.45;22.75;;;;;;;;;;4441551;32;20079;-82
2023/01/29 14:27:08;;;;;;;;;;;;;;;;;;4454408;32;20022;-80
2023/01/29 14:29:38;;;;;;;33.13;21.60;;;;;;;;;;4455188;32;19936;-79
2023/01/29 14:32:13;;;;;;;32.35;20.98;;;;;;;;;;4440078;32;20121;-80
2023/01/29 14:34:44;;;;;;;33.25;21.58;;;;;;;;;;4454300;32;20021;-79
2023/01/29 14:37:15;;;;;;;31.52;21.55;;;;;;;;;;4454632;32;20025;-81
2023/01/29 14:39:49;;;;;;;30.58;20.95;;;;;;;;;;4455050;32;20030;-80
2023/01/29 14:42:22;;;;;;;33.53;21.75;;;;;;;;;;4455317;32;20067;-80
2023/01/29 14:44:54;;;;;;;31.67;21.12;;;;;;;;;;4440076;32;20416;-80
2023/01/29 14:47:20;;;;;;;30.42;21.37;;;;;;;;;;4441593;32;20041;-81
2023/01/29 14:49:49;;;;;;;31.87;21.62;;;;;;;;;;4455865;32;20117;-82
2023/01/29 14:52:15;;;;;;;34.20;22.52;;;;;;;;;;4456359;32;20173;-80
2023/01/29 14:54:41;;;;;;;32.67;21.50;;;;;;;;;;4457619;32;20033;-81
2023/01/29 14:57:06;;;;;;;;;;;;;;;;;;4446597;32;20022;-80
2023/01/29 14:59:33;;;;;;;27.77;18.45;;;;;;;;;;4451742;32;20354;-82
2023/01/29 15:02:19;;;;;;;30.75;21.85;;;;;;;;;;4461697;32;20094;-80
2023/01/29 15:04:48;;;;;;;34.65;22.05;;;;;;;;;;4455691;32;20021;-82
2023/01/29 15:07:33;;;;;;;33.03;22.67;;;;;;;;;;4441731;32;20055;-82
2023/01/29 15:10:04;;;;;;;37.38;23.23;;;;;;;;;;4440957;32;20068;-81
2023/01/29 15:12:38;;;;;;;36.67;23.17;;;;;;;;;;4440490;32;20411;-81
2023/01/29 15:15:03;;;;;;;35.28;22.08;;;;;;;;;;4440204;32;20014;-82
2023/01/29 15:17:28;;;;;;;;;;;;;;;;;;4440475;32;20048;-83
2023/01/29 15:19:55;;;;;;;39.97;22.60;;;;;;;;;;4440269;32;19936;-82